createdAt,value
2022-11-20T00:01:33.858Z,83.66
2022-11-20T00:04:01.687Z,82.01
2022-11-20T00:06:29.957Z,84.71
2022-11-20T00:09:01.051Z,83.15
2022-11-20T00:11:32.344Z,82.49
2022-11-20T00:14:02.203Z,81.89
2022-11-20T00:16:32.944Z,81.50
2022-11-20T00:19:00.111Z,82.58
2022-11-20T00:21:35.525Z,81.46
2022-11-20T00:24:07.044Z,82.83
2022-11-20T00:26:34.158Z,83.16
2022-11-20T00:29:02.236Z,81.84
2022-11-20T00:31:31.259Z,81.28
2022-11-20T00:33:58.282Z,83.33
2022-11-20T00:36:29.361Z,83.85
2022-11-20T00:38:59.383Z,82.98
2022-11-20T00:41:28.961Z,82.99
2022-11-20T00:43:56.999Z,82.61
2022-11-20T00:46:27.951Z,81.70
2022-11-20T00:48:55.212Z,82.86
2022-11-20T00:51:25.952Z,81.95
2022-11-20T00:53:55.504Z,82.56
2022-11-20T00:56:22.522Z,82.91
2022-11-20T00:58:50.369Z,82.51
2022-11-20T01:01:26.500Z,83.13
2022-11-20T01:03:57.833Z,82.62
2022-11-20T01:06:27.392Z,82.36
2022-11-20T01:08:57.711Z,82.31
2022-11-20T01:11:28.488Z,81.15
2022-11-20T01:13:59.582Z,82.70
2022-11-20T01:16:37.895Z,83.64
2022-11-20T01:19:14.801Z,83.35
2022-11-20T01:21:47.083Z,82.41
2022-11-20T01:24:35.335Z,82.63
2022-11-20T01:27:02.331Z,83.56
2022-11-20T01:29:32.075Z,81.80
2022-11-20T01:31:59.241Z,84.21
2022-11-20T01:34:28.777Z,82.76
2022-11-20T01:36:55.891Z,83.71
2022-11-20T01:39:26.126Z,84.77
2022-11-20T01:42:31.099Z,83.35
2022-11-20T01:45:03.187Z,84.29
2022-11-20T01:47:48.059Z,84.12
2022-11-20T01:50:29.942Z,82.27
2022-11-20T01:53:07.155Z,82.35
2022-11-20T01:55:41.049Z,83.25
2022-11-20T01:58:08.452Z,83.25
2022-11-20T02:00:36.048Z,83.76
2022-11-20T02:03:10.014Z,82.63
2022-11-20T02:05:42.086Z,82.22
2022-11-20T02:08:09.199Z,82.64
2022-11-20T02:10:36.589Z,84.33
2022-11-20T02:13:22.982Z,84.94
2022-11-20T02:15:50.572Z,82.94
2022-11-20T02:18:20.543Z,83.05
2022-11-20T02:20:53.041Z,83.55
2022-11-20T02:23:40.530Z,84.92
2022-11-20T02:26:13.265Z,84.51
2022-11-20T02:28:40.494Z,85.18
2022-11-20T02:31:07.519Z,85.85
2022-11-20T02:33:37.032Z,84.84
2022-11-20T02:36:06.672Z,84.23
2022-11-20T02:38:36.203Z,84.81
2022-11-20T02:41:03.278Z,84.38
2022-11-20T02:43:30.267Z,85.46
2022-11-20T02:45:57.372Z,85.68
2022-11-20T02:48:30.211Z,85.43
2022-11-20T02:51:00.883Z,84.21
2022-11-20T02:53:27.958Z,82.41
2022-11-20T02:55:54.999Z,83.83
2022-11-20T02:58:24.976Z,82.57
2022-11-20T03:00:53.427Z,81.94
2022-11-20T03:03:21.002Z,81.91
2022-11-20T03:05:47.979Z,81.46
2022-11-20T03:08:14.999Z,83.58
2022-11-20T03:10:46.514Z,81.61
2022-11-20T03:13:13.566Z,82.94
2022-11-20T03:15:40.555Z,82.58
2022-11-20T03:18:07.620Z,82.04
2022-11-20T03:20:35.526Z,82.52
2022-11-20T03:23:05.328Z,81.45
2022-11-20T03:25:32.477Z,81.58
2022-11-20T03:27:59.456Z,81.36
2022-11-20T03:30:30.561Z,80.87
2022-11-20T03:33:00.816Z,80.53
2022-11-20T03:35:27.986Z,81.22
2022-11-20T03:37:55.047Z,79.68
2022-11-20T03:40:22.061Z,80.34
2022-11-20T03:42:49.191Z,82.44
2022-11-20T03:45:18.729Z,81.40
2022-11-20T03:47:48.481Z,82.75
2022-11-20T03:50:16.178Z,82.44
2022-11-20T03:52:43.732Z,80.66
2022-11-20T03:55:13.274Z,79.74
2022-11-20T03:57:40.386Z,81.34
2022-11-20T04:00:08.111Z,81.07
2022-11-20T04:02:35.298Z,81.28
2022-11-20T04:05:04.928Z,80.70
2022-11-20T04:07:32.439Z,81.28
2022-11-20T04:09:59.519Z,81.93
2022-11-20T04:12:26.514Z,80.77
2022-11-20T04:14:59.025Z,81.10
2022-11-20T04:17:26.045Z,80.63
2022-11-20T04:19:55.124Z,79.97
2022-11-20T04:22:27.202Z,83.34
2022-11-20T04:24:54.326Z,83.69
2022-11-20T04:27:21.619Z,82.51
2022-11-20T04:29:50.668Z,82.79
2022-11-20T04:32:20.258Z,82.79
2022-11-20T04:34:47.266Z,83.42
2022-11-20T04:37:14.255Z,83.83
2022-11-20T04:39:47.553Z,82.41
2022-11-20T04:42:29.919Z,80.95
2022-11-20T04:45:00.836Z,81.81
2022-11-20T04:47:27.840Z,81.04
2022-11-20T04:49:55.050Z,84.45
2022-11-20T04:52:22.040Z,83.60
2022-11-20T04:54:49.099Z,83.90
2022-11-20T04:57:18.660Z,83.08
2022-11-20T04:59:45.718Z,84.42
2022-11-20T05:02:13.266Z,83.44
2022-11-20T05:04:40.285Z,82.65
2022-11-20T05:07:07.324Z,82.70
2022-11-20T05:09:34.549Z,82.16
2022-11-20T05:12:01.551Z,81.82
2022-11-20T05:14:28.620Z,81.72
2022-11-20T05:16:55.717Z,81.78
2022-11-20T05:19:23.071Z,81.76
2022-11-20T05:21:50.291Z,81.27
2022-11-20T05:24:19.743Z,80.88
2022-11-20T05:26:46.817Z,83.79
2022-11-20T05:29:14.279Z,82.44
2022-11-20T05:31:42.511Z,82.48
2022-11-20T05:34:09.783Z,81.26
2022-11-20T05:36:36.791Z,82.59
2022-11-20T05:39:04.247Z,82.63
2022-11-20T05:41:31.442Z,82.89
2022-11-20T05:43:59.341Z,82.49
2022-11-20T05:46:29.008Z,83.42
2022-11-20T05:48:58.430Z,84.02
2022-11-20T05:51:26.347Z,82.75
2022-11-20T05:53:53.449Z,82.75
2022-11-20T05:56:22.827Z,83.40
2022-11-20T05:58:50.494Z,85.33
2022-11-20T06:01:25.531Z,84.32
2022-11-20T06:03:58.023Z,85.07
2022-11-20T06:06:27.043Z,85.39
2022-11-20T06:08:55.106Z,84.15
2022-11-20T06:11:22.614Z,84.05
2022-11-20T06:13:49.765Z,85.08
2022-11-20T06:16:20.409Z,85.04
2022-11-20T06:18:47.841Z,84.08
2022-11-20T06:21:18.812Z,84.35
2022-11-20T06:23:46.498Z,86.08
2022-11-20T06:26:26.467Z,84.33
2022-11-20T06:28:54.704Z,84.71
2022-11-20T06:31:24.658Z,85.08
2022-11-20T06:33:52.222Z,84.10
2022-11-20T06:36:22.646Z,83.39
2022-11-20T06:38:50.079Z,83.84
2022-11-20T06:41:20.645Z,82.85
2022-11-20T06:43:48.271Z,83.20
2022-11-20T06:46:18.683Z,83.60
2022-11-20T06:48:46.574Z,82.45
2022-11-20T06:51:14.029Z,82.32
2022-11-20T06:53:41.314Z,82.20
2022-11-20T06:56:08.781Z,82.39
2022-11-20T06:58:37.163Z,81.98
2022-11-20T07:01:08.439Z,83.16
2022-11-20T07:03:35.679Z,82.51
2022-11-20T07:06:04.161Z,81.59
2022-11-20T07:08:35.053Z,82.01
2022-11-20T07:11:08.012Z,82.15
2022-11-20T07:13:35.619Z,82.15
2022-11-20T07:16:07.965Z,80.83
2022-11-20T07:18:35.264Z,82.16
2022-11-20T07:21:08.655Z,81.76
2022-11-20T07:23:42.364Z,80.67
2022-11-20T07:26:12.148Z,81.63
2022-11-20T07:28:39.604Z,80.56
2022-11-20T07:31:12.342Z,81.21
2022-11-20T07:33:41.629Z,81.02
2022-11-20T07:36:08.966Z,80.25
2022-11-20T07:38:36.050Z,79.93
2022-11-20T07:41:03.055Z,81.71
2022-11-20T07:43:30.304Z,80.84
2022-11-20T07:45:58.765Z,81.01
2022-11-20T07:48:26.820Z,80.89
2022-11-20T07:50:57.712Z,81.19
2022-11-20T07:53:25.258Z,82.11
2022-11-20T07:55:55.313Z,80.89
2022-11-20T07:58:23.052Z,81.25
2022-11-20T08:00:50.377Z,82.21
2022-11-20T08:03:24.596Z,80.54
2022-11-20T08:05:52.478Z,79.25
2022-11-20T08:08:19.692Z,79.65
2022-11-20T08:10:49.130Z,80.46
2022-11-20T08:13:34.944Z,80.55
2022-11-20T08:16:02.348Z,79.64
2022-11-20T08:18:31.883Z,79.67
2022-11-20T08:21:04.957Z,79.99
2022-11-20T08:23:32.056Z,79.68
2022-11-20T08:25:59.054Z,79.69
2022-11-20T08:28:26.026Z,80.99
2022-11-20T08:30:58.522Z,79.49
2022-11-20T08:33:25.545Z,79.64
2022-11-20T08:35:54.728Z,79.77
2022-11-20T08:38:21.742Z,77.53
2022-11-20T08:41:08.784Z,78.13
2022-11-20T08:43:35.781Z,79.92
2022-11-20T08:46:02.930Z,78.47
2022-11-20T08:48:30.039Z,79.56
2022-11-20T08:51:00.517Z,79.30
2022-11-20T08:53:28.860Z,80.12
2022-11-20T08:55:59.195Z,79.47
2022-11-20T08:58:27.159Z,78.96
2022-11-20T09:00:54.729Z,78.83
2022-11-20T09:03:21.791Z,79.79
2022-11-20T09:05:48.814Z,79.22
2022-11-20T09:08:16.010Z,79.74
2022-11-20T09:10:43.007Z,78.48
2022-11-20T09:13:10.124Z,77.61
2022-11-20T09:15:37.060Z,79.96
2022-11-20T09:18:07.518Z,78.99
2022-11-20T09:20:37.192Z,77.23
2022-11-20T09:23:04.234Z,79.03
2022-11-20T09:25:31.319Z,78.68
2022-11-20T09:28:01.196Z,77.80
2022-11-20T09:30:28.858Z,78.14
2022-11-20T09:32:55.995Z,79.51
2022-11-20T09:35:23.280Z,80.56
2022-11-20T09:37:50.531Z,80.77
2022-11-20T09:40:30.463Z,80.86
2022-11-20T09:43:36.340Z,80.99
2022-11-20T09:46:15.859Z,81.39
2022-11-20T09:49:37.873Z,81.94
2022-11-20T09:52:28.215Z,82.23
2022-11-20T09:54:58.836Z,81.67
2022-11-20T09:57:43.413Z,82.77
2022-11-20T10:00:17.996Z,82.42
2022-11-20T10:03:32.365Z,81.47
2022-11-20T10:06:04.675Z,81.50
2022-11-20T10:08:50.356Z,81.17
2022-11-20T10:11:45.552Z,80.86
2022-11-20T10:14:52.546Z,80.84
2022-11-20T10:18:04.301Z,80.38
2022-11-20T10:20:43.776Z,80.88
2022-11-20T10:23:57.816Z,80.50
2022-11-20T10:26:53.851Z,81.25
2022-11-20T10:29:36.362Z,81.17
2022-11-20T10:32:17.389Z,81.36
2022-11-20T10:34:58.389Z,80.69
2022-11-20T10:37:31.810Z,80.29
2022-11-20T10:40:52.253Z,80.91
2022-11-20T10:43:34.300Z,79.77
2022-11-20T10:46:13.467Z,79.54
2022-11-20T10:48:45.155Z,78.75
2022-11-20T10:51:46.478Z,79.35
2022-11-20T10:54:33.739Z,80.44
2022-11-20T10:57:32.471Z,80.93
2022-11-20T11:00:07.849Z,80.06
2022-11-20T11:02:50.514Z,81.15
2022-11-20T11:05:49.792Z,81.72
2022-11-20T11:08:20.294Z,81.38
2022-11-20T11:11:08.365Z,80.38
2022-11-20T11:13:35.331Z,80.98
2022-11-20T11:16:03.974Z,80.10
2022-11-20T11:18:37.232Z,78.67
2022-11-20T11:21:06.405Z,79.31
2022-11-20T11:23:41.091Z,78.92
2022-11-20T11:26:22.531Z,79.07
2022-11-20T11:29:19.008Z,78.05
2022-11-20T11:31:45.998Z,78.45
2022-11-20T11:34:16.465Z,78.42
2022-11-20T11:36:50.645Z,80.25
2022-11-20T11:39:22.489Z,80.01
2022-11-20T11:41:50.413Z,80.25
2022-11-20T11:44:50.987Z,81.41
2022-11-20T11:47:49.418Z,80.12
2022-11-20T11:50:17.655Z,80.61
2022-11-20T11:52:57.949Z,79.75
2022-11-20T11:55:43.532Z,78.49
2022-11-20T11:58:41.938Z,79.37
2022-11-20T12:01:30.814Z,78.25
2022-11-20T12:04:18.093Z,77.76
2022-11-20T12:06:53.651Z,78.13
2022-11-20T12:09:29.550Z,77.35
2022-11-20T12:12:40.148Z,77.93
2022-11-20T12:15:30.165Z,79.22
2022-11-20T12:17:59.748Z,79.50
2022-11-20T12:20:45.290Z,79.27
2022-11-20T12:23:51.479Z,80.03
2022-11-20T12:26:54.536Z,80.50
2022-11-20T12:29:52.166Z,80.24
2022-11-20T12:32:47.115Z,80.63
2022-11-20T12:35:33.469Z,79.87
2022-11-20T12:38:41.161Z,78.38
2022-11-20T12:41:39.679Z,79.26
2022-11-20T12:44:47.134Z,78.10
2022-11-20T12:47:34.806Z,78.82
2022-11-20T12:50:42.824Z,78.49
2022-11-20T12:53:21.494Z,80.86
2022-11-20T12:56:29.022Z,79.91
2022-11-20T12:59:24.986Z,79.75
2022-11-20T13:02:10.756Z,81.03
2022-11-20T13:04:37.692Z,80.36
2022-11-20T13:07:11.013Z,82.17
2022-11-20T13:09:47.981Z,81.56
2022-11-20T13:12:25.805Z,82.56
2022-11-20T13:15:18.861Z,81.67
2022-11-20T13:18:09.139Z,79.90
2022-11-20T13:20:41.937Z,79.56
2022-11-20T13:23:08.973Z,80.24
2022-11-20T13:25:39.831Z,78.95
2022-11-20T13:28:31.160Z,80.16
2022-11-20T13:30:59.746Z,79.69
2022-11-20T13:33:37.430Z,81.20
2022-11-20T13:36:22.566Z,80.85
2022-11-20T13:38:56.245Z,80.81
2022-11-20T13:41:28.951Z,80.05
2022-11-20T13:44:23.378Z,79.96
2022-11-20T13:46:50.470Z,80.04
2022-11-20T13:49:45.423Z,80.05
2022-11-20T13:52:49.442Z,80.71
2022-11-20T13:55:34.712Z,79.98
2022-11-20T13:58:29.508Z,81.14
2022-11-20T14:01:02.593Z,82.42
2022-11-20T14:06:32.616Z,81.22
2022-11-20T14:09:00.750Z,81.89
2022-11-20T14:11:32.426Z,81.69
2022-11-20T14:14:14.189Z,82.39
2022-11-20T14:16:41.365Z,82.69
2022-11-20T14:19:31.764Z,81.67
2022-11-20T14:22:19.195Z,82.92
2022-11-20T14:24:50.233Z,81.88
2022-11-20T14:27:22.341Z,82.73
2022-11-20T14:29:51.266Z,83.60
2022-11-20T14:32:31.544Z,83.18
2022-11-20T14:35:09.587Z,82.59
2022-11-20T14:37:40.791Z,83.34
2022-11-20T14:40:29.883Z,83.22
2022-11-20T14:42:59.153Z,83.94
2022-11-20T14:45:29.285Z,83.22
2022-11-20T14:47:59.385Z,83.15
2022-11-20T14:50:30.353Z,84.11
2022-11-20T14:53:02.403Z,84.91
2022-11-20T14:55:38.275Z,83.48
2022-11-20T14:58:29.187Z,82.69
2022-11-20T15:01:08.589Z,82.88
2022-11-20T15:03:42.037Z,84.27
2022-11-20T15:06:16.187Z,82.71
2022-11-20T15:08:53.151Z,83.61
2022-11-20T15:11:33.184Z,83.52
2022-11-20T15:14:07.056Z,82.56
2022-11-20T15:16:34.533Z,82.44
2022-11-20T15:19:04.563Z,82.97
2022-11-20T15:21:31.564Z,82.93
2022-11-20T15:23:59.378Z,82.07
2022-11-20T15:26:29.075Z,81.91
2022-11-20T15:28:56.161Z,81.09
2022-11-20T15:31:26.426Z,81.58
2022-11-20T15:33:53.498Z,81.42
2022-11-20T15:36:20.665Z,81.02
2022-11-20T15:38:47.643Z,82.48
2022-11-20T15:41:14.648Z,82.40
2022-11-20T15:43:41.639Z,82.78
2022-11-20T15:46:16.832Z,81.82
2022-11-20T15:48:53.135Z,83.00
2022-11-20T15:51:27.694Z,81.90
2022-11-20T15:53:57.098Z,83.39
2022-11-20T15:56:24.898Z,83.22
2022-11-20T15:58:51.882Z,83.84
2022-11-20T16:01:22.812Z,82.40
2022-11-20T16:03:50.249Z,83.29
2022-11-20T16:06:19.699Z,82.99
2022-11-20T16:08:49.230Z,82.84
2022-11-20T16:11:20.359Z,81.80
2022-11-20T16:14:06.252Z,83.01
2022-11-20T16:16:39.591Z,83.64
2022-11-20T16:19:06.586Z,84.13
2022-11-20T16:21:33.813Z,84.13
2022-11-20T16:24:07.356Z,83.51
2022-11-20T16:26:36.614Z,82.69
2022-11-20T16:29:06.223Z,83.77
2022-11-20T16:31:34.610Z,83.71
2022-11-20T16:34:23.407Z,82.40
2022-11-20T16:36:50.561Z,82.47
2022-11-20T16:39:23.969Z,83.06
2022-11-20T16:41:51.282Z,83.75
2022-11-20T16:44:18.282Z,82.23
2022-11-20T16:46:45.238Z,82.87
2022-11-20T16:49:14.535Z,83.69
2022-11-20T16:51:42.862Z,83.28
2022-11-20T16:54:10.817Z,82.43
2022-11-20T16:56:38.272Z,82.22
2022-11-20T16:59:05.911Z,82.77
2022-11-20T17:01:33.161Z,80.97
2022-11-20T17:04:03.353Z,82.66
2022-11-20T17:06:36.100Z,82.24
2022-11-20T17:09:06.105Z,82.42
2022-11-20T17:11:36.052Z,82.18
2022-11-20T17:14:07.501Z,81.82
2022-11-20T17:16:38.855Z,81.35
2022-11-20T17:19:05.988Z,81.58
2022-11-20T17:21:36.210Z,81.23
2022-11-20T17:24:06.662Z,82.07
2022-11-20T17:26:35.164Z,82.55
2022-11-20T17:29:06.995Z,82.46
2022-11-20T17:31:35.058Z,83.11
2022-11-20T17:34:02.621Z,83.75
2022-11-20T17:36:33.263Z,82.80
2022-11-20T17:39:00.715Z,83.34
2022-11-20T17:41:30.318Z,83.12
2022-11-20T17:44:00.441Z,82.82
2022-11-20T17:46:33.471Z,82.93
2022-11-20T17:49:02.128Z,83.13
2022-11-20T17:51:33.307Z,83.54
2022-11-20T17:54:05.311Z,83.23
2022-11-20T17:56:52.723Z,82.84
2022-11-20T17:59:22.645Z,83.47
2022-11-20T18:01:49.842Z,82.34
2022-11-20T18:04:17.328Z,82.73
2022-11-20T18:06:44.710Z,83.32
2022-11-20T18:09:12.427Z,82.56
2022-11-20T18:11:43.170Z,82.08
2022-11-20T18:14:32.562Z,81.82
2022-11-20T18:19:40.944Z,82.96
2022-11-20T18:22:13.768Z,83.23
2022-11-20T18:24:42.191Z,82.80
2022-11-20T18:27:20.707Z,81.71
2022-11-20T18:29:51.923Z,81.94
2022-11-20T18:32:22.848Z,82.27
2022-11-20T18:34:51.370Z,82.90
2022-11-20T18:37:19.071Z,83.24
2022-11-20T18:39:50.713Z,83.29
2022-11-20T18:42:36.719Z,82.96
2022-11-20T18:45:07.409Z,82.91
2022-11-20T18:47:40.081Z,82.08
2022-11-20T18:50:11.903Z,81.81
2022-11-20T18:52:44.558Z,83.69
2022-11-20T18:55:12.938Z,81.75
2022-11-20T18:57:40.134Z,82.53
2022-11-20T19:00:11.088Z,81.62
2022-11-20T19:02:42.251Z,81.78
2022-11-20T19:05:14.697Z,82.09
2022-11-20T19:07:42.727Z,82.16
2022-11-20T19:10:10.165Z,82.38
2022-11-20T19:12:37.218Z,81.71
2022-11-20T19:15:04.991Z,81.62
2022-11-20T19:17:33.907Z,82.07
2022-11-20T19:20:01.005Z,83.17
2022-11-20T19:22:28.196Z,83.34
2022-11-20T19:24:55.241Z,82.01
2022-11-20T19:27:22.289Z,82.26
2022-11-20T19:29:57.665Z,82.38
2022-11-20T19:32:25.542Z,82.71
2022-11-20T19:34:53.777Z,83.47
2022-11-20T19:37:20.821Z,83.28
2022-11-20T19:39:48.332Z,83.04
2022-11-20T19:42:15.563Z,83.22
2022-11-20T19:44:42.834Z,83.41
2022-11-20T19:47:14.210Z,83.00
2022-11-20T19:49:41.966Z,83.12
2022-11-20T19:52:09.431Z,83.43
2022-11-20T19:54:37.058Z,83.33
2022-11-20T19:57:04.033Z,82.34
2022-11-20T19:59:31.209Z,82.83
2022-11-20T20:01:58.396Z,83.19
2022-11-20T20:04:27.552Z,82.16
2022-11-20T20:06:54.656Z,82.28
2022-11-20T20:09:23.844Z,82.08
2022-11-20T20:11:50.997Z,82.87
2022-11-20T20:14:20.556Z,82.89
2022-11-20T20:16:47.803Z,82.56
2022-11-20T20:19:16.973Z,81.91
2022-11-20T20:21:44.674Z,82.81
2022-11-20T20:24:14.630Z,82.45
2022-11-20T20:26:42.211Z,82.28
2022-11-20T20:29:09.376Z,81.43
2022-11-20T20:31:36.451Z,81.48
2022-11-20T20:34:05.491Z,80.30
2022-11-20T20:36:32.641Z,79.84
2022-11-20T20:39:04.609Z,80.86
2022-11-20T20:41:32.268Z,81.60
2022-11-20T20:44:18.037Z,81.05
2022-11-20T20:46:45.195Z,81.91
2022-11-20T20:49:12.436Z,81.11
2022-11-20T20:51:39.457Z,80.71
2022-11-20T20:54:06.591Z,80.76
2022-11-20T20:56:33.630Z,80.89
2022-11-20T20:59:00.722Z,81.37
2022-11-20T21:01:28.892Z,81.06
2022-11-20T21:03:57.039Z,80.04
2022-11-20T21:06:24.558Z,79.59
2022-11-20T21:08:51.622Z,79.91
2022-11-20T21:11:20.296Z,79.74
2022-11-20T21:13:48.993Z,79.94
2022-11-20T21:16:18.176Z,79.99
2022-11-20T21:18:45.550Z,80.02
2022-11-20T21:21:32.706Z,79.65
2022-11-20T21:23:59.909Z,79.94
2022-11-20T21:26:27.312Z,80.54
2022-11-20T21:28:54.460Z,80.22
2022-11-20T21:31:27.359Z,80.49
2022-11-20T21:33:58.833Z,80.15
2022-11-20T21:36:29.048Z,80.05
2022-11-20T21:38:59.453Z,79.02
2022-11-20T21:41:30.441Z,80.21
2022-11-20T21:44:29.647Z,80.50
2022-11-20T21:46:48.708Z,81.54
2022-11-20T21:49:18.655Z,82.23
2022-11-20T21:51:45.668Z,81.89
2022-11-20T21:54:12.840Z,81.83
2022-11-20T21:56:40.028Z,82.61
2022-11-20T21:59:06.995Z,81.71
2022-11-20T22:01:34.077Z,80.71
2022-11-20T22:04:02.874Z,80.18
2022-11-20T22:06:36.538Z,80.60
2022-11-20T22:09:06.654Z,79.52
2022-11-20T22:11:33.725Z,78.49
2022-11-20T22:14:19.438Z,80.05
2022-11-20T22:16:47.266Z,80.50
2022-11-20T22:19:24.316Z,79.85
2022-11-20T22:21:51.317Z,79.39
2022-11-20T22:24:23.314Z,79.94
2022-11-20T22:26:53.410Z,80.02
2022-11-20T22:29:23.835Z,79.58
2022-11-20T22:31:53.994Z,79.71
2022-11-20T22:34:21.274Z,79.44
2022-11-20T22:36:48.526Z,79.81
2022-11-20T22:39:15.638Z,78.57
2022-11-20T22:41:42.671Z,78.75
2022-11-20T22:44:13.532Z,79.09
2022-11-20T22:46:40.601Z,78.50
2022-11-20T22:49:08.919Z,79.33
2022-11-20T22:51:39.362Z,81.02
2022-11-20T22:54:07.548Z,79.11
2022-11-20T22:56:35.212Z,78.49
2022-11-20T22:59:04.564Z,78.88
2022-11-20T23:01:37.923Z,77.98
2022-11-20T23:04:10.829Z,78.80
2022-11-20T23:07:00.414Z,79.08
2022-11-20T23:09:29.751Z,80.43
2022-11-20T23:11:56.710Z,78.90
2022-11-20T23:14:28.317Z,79.71
2022-11-20T23:16:55.395Z,80.55
2022-11-20T23:19:22.712Z,80.19
2022-11-20T23:21:49.770Z,80.60
2022-11-20T23:24:16.796Z,79.81
2022-11-20T23:26:45.265Z,80.92
2022-11-20T23:29:13.002Z,79.56
2022-11-20T23:31:43.447Z,79.74
2022-11-20T23:34:10.676Z,80.72
2022-11-20T23:36:37.665Z,80.30
2022-11-20T23:39:08.672Z,81.10
2022-11-20T23:41:35.693Z,81.41
2022-11-20T23:44:02.772Z,80.62
2022-11-20T23:46:29.761Z,80.05
2022-11-20T23:48:56.716Z,81.10
2022-11-20T23:51:23.768Z,79.02
2022-11-20T23:53:50.820Z,79.92
2022-11-20T23:56:17.826Z,79.58
2022-11-20T23:58:44.887Z,81.01
